sensor_id;sensor_type;location;lat;lon;timestamp;pressure;altitude;pressure_sealevel;temperature;humidity
56614;BME280;75854;35.670;139.690;2024-01-30T00:01:56;102654.15;;;7.01;34.00
56614;BME280;75854;35.670;139.690;2024-01-30T00:04:26;102652.52;;;7.33;33.64
56614;BME280;75854;35.670;139.690;2024-01-30T00:06:56;102653.38;;;6.72;34.17
56614;BME280;75854;35.670;139.690;2024-01-30T00:09:26;102657.43;;;6.69;33.56
56614;BME280;75854;35.670;139.690;2024-01-30T00:11:56;102661.05;;;6.85;34.16
56614;BME280;75854;35.670;139.690;2024-01-30T00:14:31;102659.92;;;6.66;33.94
56614;BME280;75854;35.670;139.690;2024-01-30T00:17:01;102653.21;;;6.87;33.51
56614;BME280;75854;35.670;139.690;2024-01-30T00:19:30;102645.32;;;6.79;33.78
56614;BME280;75854;35.670;139.690;2024-01-30T00:22:00;102642.13;;;7.08;33.31
56614;BME280;75854;35.670;139.690;2024-01-30T00:24:30;102640.98;;;6.91;33.26
56614;BME280;75854;35.670;139.690;2024-01-30T00:27:00;102641.41;;;7.06;33.78
56614;BME280;75854;35.670;139.690;2024-01-30T00:29:29;102642.16;;;7.23;33.24
56614;BME280;75854;35.670;139.690;2024-01-30T00:32:00;102650.28;;;7.33;33.23
56614;BME280;75854;35.670;139.690;2024-01-30T00:34:30;102649.68;;;7.14;33.05
56614;BME280;75854;35.670;139.690;2024-01-30T00:36:59;102652.19;;;7.50;32.87
56614;BME280;75854;35.670;139.690;2024-01-30T00:39:29;102647.39;;;7.58;33.21
56614;BME280;75854;35.670;139.690;2024-01-30T00:41:59;102648.63;;;7.24;32.89
56614;BME280;75854;35.670;139.690;2024-01-30T00:44:29;102648.15;;;7.36;32.36
56614;BME280;75854;35.670;139.690;2024-01-30T00:46:59;102642.47;;;7.70;32.29
56614;BME280;75854;35.670;139.690;2024-01-30T00:49:30;102643.14;;;7.34;32.61
56614;BME280;75854;35.670;139.690;2024-01-30T00:52:00;102637.54;;;7.57;32.49
56614;BME280;75854;35.670;139.690;2024-01-30T00:54:30;102639.76;;;7.83;31.60
56614;BME280;75854;35.670;139.690;2024-01-30T00:57:00;102644.50;;;7.59;32.04
56614;BME280;75854;35.670;139.690;2024-01-30T00:59:30;102643.80;;;7.30;31.88
56614;BME280;75854;35.670;139.690;2024-01-30T01:02:00;102641.29;;;7.74;32.02
56614;BME280;75854;35.670;139.690;2024-01-30T01:04:30;102643.98;;;7.30;31.30
56614;BME280;75854;35.670;139.690;2024-01-30T01:07:00;102646.67;;;6.98;32.31
56614;BME280;75854;35.670;139.690;2024-01-30T01:09:30;102646.09;;;7.10;32.59
56614;BME280;75854;35.670;139.690;2024-01-30T01:11:59;102636.28;;;7.57;31.43
56614;BME280;75854;35.670;139.690;2024-01-30T01:14:30;102637.06;;;6.70;32.04
56614;BME280;75854;35.670;139.690;2024-01-30T01:17:00;102634.65;;;7.58;31.36
56614;BME280;75854;35.670;139.690;2024-01-30T01:19:30;102639.57;;;8.11;30.92
56614;BME280;75854;35.670;139.690;2024-01-30T01:22:01;102641.91;;;7.81;31.03
56614;BME280;75854;35.670;139.690;2024-01-30T01:24:32;102644.08;;;8.46;30.59
56614;BME280;75854;35.670;139.690;2024-01-30T01:27:02;102641.93;;;8.84;29.70
56614;BME280;75854;35.670;139.690;2024-01-30T01:29:32;102645.77;;;8.95;29.27
56614;BME280;75854;35.670;139.690;2024-01-30T01:32:02;102645.82;;;8.77;29.20
56614;BME280;75854;35.670;139.690;2024-01-30T01:34:31;102640.02;;;8.75;30.38
56614;BME280;75854;35.670;139.690;2024-01-30T01:37:01;102635.96;;;8.70;29.28
56614;BME280;75854;35.670;139.690;2024-01-30T01:39:30;102633.57;;;8.76;29.46
56614;BME280;75854;35.670;139.690;2024-01-30T01:42:00;102631.51;;;8.78;29.20
56614;BME280;75854;35.670;139.690;2024-01-30T01:44:30;102626.00;;;9.14;29.09
56614;BME280;75854;35.670;139.690;2024-01-30T01:47:01;102624.47;;;8.80;29.07
56614;BME280;75854;35.670;139.690;2024-01-30T01:49:31;102616.83;;;7.78;29.62
56614;BME280;75854;35.670;139.690;2024-01-30T01:52:02;102611.90;;;8.08;29.62
56614;BME280;75854;35.670;139.690;2024-01-30T01:54:32;102612.65;;;8.04;30.12
56614;BME280;75854;35.670;139.690;2024-01-30T01:57:02;102605.79;;;8.28;29.19
56614;BME280;75854;35.670;139.690;2024-01-30T01:59:32;102604.67;;;8.49;28.98
56614;BME280;75854;35.670;139.690;2024-01-30T02:02:03;102594.20;;;7.82;29.52
56614;BME280;75854;35.670;139.690;2024-01-30T02:04:34;102587.12;;;8.27;29.67
56614;BME280;75854;35.670;139.690;2024-01-30T02:07:04;102585.92;;;9.09;28.67
56614;BME280;75854;35.670;139.690;2024-01-30T02:09:34;102585.09;;;8.46;29.27
56614;BME280;75854;35.670;139.690;2024-01-30T02:12:04;102580.37;;;8.39;28.88
56614;BME280;75854;35.670;139.690;2024-01-30T02:14:43;102573.48;;;8.98;28.26
56614;BME280;75854;35.670;139.690;2024-01-30T02:17:14;102571.80;;;8.21;28.96
56614;BME280;75854;35.670;139.690;2024-01-30T02:19:44;102570.77;;;7.44;29.37
56614;BME280;75854;35.670;139.690;2024-01-30T02:22:14;102567.26;;;9.43;28.07
56614;BME280;75854;35.670;139.690;2024-01-30T02:24:44;102568.63;;;8.64;28.49
56614;BME280;75854;35.670;139.690;2024-01-30T02:27:14;102560.13;;;9.02;28.59
56614;BME280;75854;35.670;139.690;2024-01-30T02:29:45;102550.83;;;9.31;27.76
56614;BME280;75854;35.670;139.690;2024-01-30T02:32:15;102544.18;;;9.49;27.49
56614;BME280;75854;35.670;139.690;2024-01-30T02:34:45;102543.15;;;9.14;27.68
56614;BME280;75854;35.670;139.690;2024-01-30T02:37:16;102548.37;;;9.01;28.05
56614;BME280;75854;35.670;139.690;2024-01-30T02:39:46;102547.59;;;9.01;28.25
56614;BME280;75854;35.670;139.690;2024-01-30T02:42:16;102540.54;;;9.34;27.90
56614;BME280;75854;35.670;139.690;2024-01-30T02:44:46;102539.14;;;9.03;27.66
56614;BME280;75854;35.670;139.690;2024-01-30T02:47:16;102536.65;;;9.11;27.47
56614;BME280;75854;35.670;139.690;2024-01-30T02:49:46;102529.62;;;8.51;28.36
56614;BME280;75854;35.670;139.690;2024-01-30T02:52:16;102526.33;;;9.50;27.76
56614;BME280;75854;35.670;139.690;2024-01-30T02:54:46;102523.13;;;9.14;27.63
56614;BME280;75854;35.670;139.690;2024-01-30T02:57:16;102528.04;;;8.65;27.88
56614;BME280;75854;35.670;139.690;2024-01-30T02:59:45;102519.35;;;9.19;27.63
56614;BME280;75854;35.670;139.690;2024-01-30T03:02:15;102516.91;;;9.08;27.73
56614;BME280;75854;35.670;139.690;2024-01-30T03:04:45;102511.71;;;8.86;28.19
56614;BME280;75854;35.670;139.690;2024-01-30T03:07:16;102503.92;;;9.39;27.22
56614;BME280;75854;35.670;139.690;2024-01-30T03:09:45;102499.79;;;9.43;27.24
56614;BME280;75854;35.670;139.690;2024-01-30T03:12:15;102497.94;;;9.26;27.06
56614;BME280;75854;35.670;139.690;2024-01-30T03:14:44;102494.68;;;9.29;27.20
56614;BME280;75854;35.670;139.690;2024-01-30T03:17:15;102491.52;;;9.20;27.15
56614;BME280;75854;35.670;139.690;2024-01-30T03:19:45;102492.00;;;9.46;27.50
56614;BME280;75854;35.670;139.690;2024-01-30T03:22:16;102490.67;;;9.88;27.30
56614;BME280;75854;35.670;139.690;2024-01-30T03:24:45;102487.18;;;9.46;27.30
56614;BME280;75854;35.670;139.690;2024-01-30T03:27:15;102479.36;;;9.95;26.69
56614;BME280;75854;35.670;139.690;2024-01-30T03:29:46;102477.56;;;9.22;26.83
56614;BME280;75854;35.670;139.690;2024-01-30T03:32:16;102470.59;;;9.78;26.67
56614;BME280;75854;35.670;139.690;2024-01-30T03:34:46;102473.52;;;9.39;26.76
56614;BME280;75854;35.670;139.690;2024-01-30T03:37:16;102472.58;;;9.43;26.86
56614;BME280;75854;35.670;139.690;2024-01-30T03:39:46;102469.74;;;9.26;26.44
56614;BME280;75854;35.670;139.690;2024-01-30T03:42:15;102462.92;;;9.31;26.16
56614;BME280;75854;35.670;139.690;2024-01-30T03:44:45;102458.71;;;9.51;26.19
56614;BME280;75854;35.670;139.690;2024-01-30T03:47:15;102458.33;;;9.48;26.51
56614;BME280;75854;35.670;139.690;2024-01-30T03:49:45;102457.92;;;9.56;26.98
56614;BME280;75854;35.670;139.690;2024-01-30T03:52:15;102449.31;;;9.58;26.47
56614;BME280;75854;35.670;139.690;2024-01-30T03:54:45;102442.77;;;10.23;25.65
56614;BME280;75854;35.670;139.690;2024-01-30T03:57:15;102436.00;;;10.28;25.79
56614;BME280;75854;35.670;139.690;2024-01-30T03:59:45;102434.20;;;9.35;26.44
56614;BME280;75854;35.670;139.690;2024-01-30T04:02:15;102433.39;;;9.27;26.27
56614;BME280;75854;35.670;139.690;2024-01-30T04:04:45;102440.08;;;9.05;26.34
56614;BME280;75854;35.670;139.690;2024-01-30T04:07:15;102438.00;;;9.63;25.79
56614;BME280;75854;35.670;139.690;2024-01-30T04:09:46;102444.03;;;9.15;25.67
56614;BME280;75854;35.670;139.690;2024-01-30T04:12:16;102439.86;;;9.34;25.83
56614;BME280;75854;35.670;139.690;2024-01-30T04:14:47;102430.95;;;9.98;25.80
56614;BME280;75854;35.670;139.690;2024-01-30T04:17:16;102426.52;;;10.03;25.34
56614;BME280;75854;35.670;139.690;2024-01-30T04:19:47;102422.84;;;9.35;25.99
56614;BME280;75854;35.670;139.690;2024-01-30T04:22:17;102424.35;;;10.08;25.42
56614;BME280;75854;35.670;139.690;2024-01-30T04:24:48;102421.17;;;10.01;25.49
56614;BME280;75854;35.670;139.690;2024-01-30T04:27:18;102416.46;;;9.46;25.24
56614;BME280;75854;35.670;139.690;2024-01-30T04:29:48;102413.57;;;9.68;25.44
56614;BME280;75854;35.670;139.690;2024-01-30T04:32:18;102411.39;;;9.68;24.82
56614;BME280;75854;35.670;139.690;2024-01-30T04:34:48;102403.81;;;10.04;24.49
56614;BME280;75854;35.670;139.690;2024-01-30T04:37:18;102400.31;;;9.73;25.08
56614;BME280;75854;35.670;139.690;2024-01-30T04:39:48;102395.27;;;9.91;24.53
56614;BME280;75854;35.670;139.690;2024-01-30T04:42:18;102390.24;;;10.23;24.44
56614;BME280;75854;35.670;139.690;2024-01-30T04:44:49;102393.51;;;9.66;25.17
56614;BME280;75854;35.670;139.690;2024-01-30T04:47:18;102394.04;;;10.03;24.40
56614;BME280;75854;35.670;139.690;2024-01-30T04:49:48;102390.11;;;9.94;24.52
56614;BME280;75854;35.670;139.690;2024-01-30T04:52:19;102385.04;;;10.30;24.39
56614;BME280;75854;35.670;139.690;2024-01-30T04:54:48;102385.19;;;10.20;23.82
56614;BME280;75854;35.670;139.690;2024-01-30T04:57:18;102383.34;;;10.32;24.20
56614;BME280;75854;35.670;139.690;2024-01-30T04:59:48;102383.27;;;9.98;24.43
56614;BME280;75854;35.670;139.690;2024-01-30T05:02:18;102377.37;;;9.87;24.47
56614;BME280;75854;35.670;139.690;2024-01-30T05:04:48;102373.11;;;10.29;24.19
56614;BME280;75854;35.670;139.690;2024-01-30T05:07:18;102377.10;;;10.48;24.05
56614;BME280;75854;35.670;139.690;2024-01-30T05:09:48;102384.44;;;10.56;24.01
56614;BME280;75854;35.670;139.690;2024-01-30T05:12:19;102383.45;;;10.30;24.49
56614;BME280;75854;35.670;139.690;2024-01-30T05:14:49;102384.16;;;10.08;25.21
56614;BME280;75854;35.670;139.690;2024-01-30T05:17:19;102389.95;;;9.13;26.92
56614;BME280;75854;35.670;139.690;2024-01-30T05:19:50;102387.22;;;7.89;27.11
56614;BME280;75854;35.670;139.690;2024-01-30T05:22:21;102384.36;;;8.24;27.67
56614;BME280;75854;35.670;139.690;2024-01-30T05:24:50;102384.14;;;8.41;27.39
56614;BME280;75854;35.670;139.690;2024-01-30T05:27:20;102380.54;;;8.25;27.45
56614;BME280;75854;35.670;139.690;2024-01-30T05:29:50;102382.41;;;7.91;27.51
56614;BME280;75854;35.670;139.690;2024-01-30T05:32:20;102382.06;;;8.03;27.53
56614;BME280;75854;35.670;139.690;2024-01-30T05:34:50;102375.61;;;8.05;27.68
56614;BME280;75854;35.670;139.690;2024-01-30T05:37:20;102369.22;;;8.03;27.36
56614;BME280;75854;35.670;139.690;2024-01-30T05:39:50;102372.71;;;8.19;27.33
56614;BME280;75854;35.670;139.690;2024-01-30T05:42:20;102370.47;;;7.80;27.41
56614;BME280;75854;35.670;139.690;2024-01-30T05:44:50;102369.76;;;7.90;28.05
56614;BME280;75854;35.670;139.690;2024-01-30T05:47:20;102374.73;;;8.13;27.89
56614;BME280;75854;35.670;139.690;2024-01-30T05:49:50;102375.73;;;7.83;27.80
56614;BME280;75854;35.670;139.690;2024-01-30T05:52:20;102378.67;;;7.90;27.15
56614;BME280;75854;35.670;139.690;2024-01-30T05:54:50;102378.23;;;7.69;27.24
56614;BME280;75854;35.670;139.690;2024-01-30T05:57:20;102376.85;;;8.35;27.26
56614;BME280;75854;35.670;139.690;2024-01-30T05:59:51;102370.01;;;7.92;27.57
56614;BME280;75854;35.670;139.690;2024-01-30T06:02:20;102367.17;;;8.80;26.58
56614;BME280;75854;35.670;139.690;2024-01-30T06:04:50;102365.07;;;9.13;26.10
56614;BME280;75854;35.670;139.690;2024-01-30T06:07:21;102369.97;;;9.39;25.97
56614;BME280;75854;35.670;139.690;2024-01-30T06:09:51;102369.73;;;9.37;25.24
56614;BME280;75854;35.670;139.690;2024-01-30T06:12:21;102360.69;;;9.09;25.27
56614;BME280;75854;35.670;139.690;2024-01-30T06:14:50;102361.44;;;9.70;24.83
56614;BME280;75854;35.670;139.690;2024-01-30T06:17:21;102358.30;;;9.47;24.13
56614;BME280;75854;35.670;139.690;2024-01-30T06:19:51;102356.10;;;9.77;23.69
56614;BME280;75854;35.670;139.690;2024-01-30T06:22:20;102354.85;;;9.82;23.73
56614;BME280;75854;35.670;139.690;2024-01-30T06:24:51;102354.48;;;10.31;23.38
56614;BME280;75854;35.670;139.690;2024-01-30T06:27:21;102356.08;;;9.99;23.60
56614;BME280;75854;35.670;139.690;2024-01-30T06:29:51;102350.73;;;10.40;22.60
56614;BME280;75854;35.670;139.690;2024-01-30T06:32:21;102356.97;;;10.51;23.07
56614;BME280;75854;35.670;139.690;2024-01-30T06:34:51;102364.96;;;10.53;22.90
56614;BME280;75854;35.670;139.690;2024-01-30T06:37:21;102362.74;;;10.04;23.12
56614;BME280;75854;35.670;139.690;2024-01-30T06:39:51;102368.64;;;10.40;22.58
56614;BME280;75854;35.670;139.690;2024-01-30T06:42:21;102375.68;;;9.42;22.95
56614;BME280;75854;35.670;139.690;2024-01-30T06:44:51;102377.04;;;10.12;23.03
56614;BME280;75854;35.670;139.690;2024-01-30T06:47:21;102375.59;;;10.14;23.03
56614;BME280;75854;35.670;139.690;2024-01-30T06:49:51;102375.48;;;10.31;22.82
56614;BME280;75854;35.670;139.690;2024-01-30T06:52:21;102373.07;;;10.44;22.99
56614;BME280;75854;35.670;139.690;2024-01-30T06:54:51;102384.97;;;10.19;23.14
56614;BME280;75854;35.670;139.690;2024-01-30T06:57:21;102387.36;;;10.30;23.17
56614;BME280;75854;35.670;139.690;2024-01-30T06:59:52;102392.17;;;10.52;22.20
56614;BME280;75854;35.670;139.690;2024-01-30T07:02:22;102390.38;;;10.30;22.30
56614;BME280;75854;35.670;139.690;2024-01-30T07:04:52;102379.32;;;10.74;21.91
56614;BME280;75854;35.670;139.690;2024-01-30T07:07:22;102388.61;;;10.41;22.15
56614;BME280;75854;35.670;139.690;2024-01-30T07:09:53;102384.03;;;10.80;22.81
56614;BME280;75854;35.670;139.690;2024-01-30T07:12:23;102398.04;;;10.47;24.87
56614;BME280;75854;35.670;139.690;2024-01-30T07:14:53;102403.29;;;10.50;25.62
56614;BME280;75854;35.670;139.690;2024-01-30T07:17:23;102404.37;;;10.06;26.16
56614;BME280;75854;35.670;139.690;2024-01-30T07:19:53;102404.00;;;10.30;26.34
56614;BME280;75854;35.670;139.690;2024-01-30T07:22:23;102408.46;;;9.80;26.51
56614;BME280;75854;35.670;139.690;2024-01-30T07:24:53;102409.07;;;10.28;27.23
56614;BME280;75854;35.670;139.690;2024-01-30T07:27:22;102414.30;;;10.17;26.64
56614;BME280;75854;35.670;139.690;2024-01-30T07:29:52;102418.15;;;10.00;26.65
56614;BME280;75854;35.670;139.690;2024-01-30T07:32:22;102415.86;;;9.76;26.97
56614;BME280;75854;35.670;139.690;2024-01-30T07:34:52;102418.61;;;10.26;26.80
56614;BME280;75854;35.670;139.690;2024-01-30T07:37:23;102422.99;;;9.97;27.33
56614;BME280;75854;35.670;139.690;2024-01-30T07:39:53;102430.57;;;10.20;27.12
56614;BME280;75854;35.670;139.690;2024-01-30T07:42:22;102433.50;;;9.87;27.71
56614;BME280;75854;35.670;139.690;2024-01-30T07:44:52;102430.83;;;10.05;26.97
56614;BME280;75854;35.670;139.690;2024-01-30T07:47:22;102436.71;;;10.09;26.90
56614;BME280;75854;35.670;139.690;2024-01-30T07:49:52;102436.47;;;9.61;27.55
56614;BME280;75854;35.670;139.690;2024-01-30T07:52:22;102435.99;;;9.40;28.02
56614;BME280;75854;35.670;139.690;2024-01-30T07:54:52;102444.06;;;9.70;27.34
56614;BME280;75854;35.670;139.690;2024-01-30T07:57:23;102446.78;;;9.69;27.00
56614;BME280;75854;35.670;139.690;2024-01-30T07:59:52;102448.49;;;9.75;28.04
56614;BME280;75854;35.670;139.690;2024-01-30T08:02:22;102457.83;;;10.23;28.16
56614;BME280;75854;35.670;139.690;2024-01-30T08:04:52;102456.99;;;9.50;28.17
56614;BME280;75854;35.670;139.690;2024-01-30T08:07:23;102461.84;;;9.73;29.25
56614;BME280;75854;35.670;139.690;2024-01-30T08:09:53;102464.64;;;9.99;28.19
56614;BME280;75854;35.670;139.690;2024-01-30T08:12:22;102466.37;;;9.50;28.74
56614;BME280;75854;35.670;139.690;2024-01-30T08:14:52;102471.39;;;9.67;28.99
56614;BME280;75854;35.670;139.690;2024-01-30T08:17:22;102469.31;;;9.11;30.06
56614;BME280;75854;35.670;139.690;2024-01-30T08:19:52;102469.66;;;9.22;29.92
56614;BME280;75854;35.670;139.690;2024-01-30T08:22:22;102469.95;;;9.63;29.73
56614;BME280;75854;35.670;139.690;2024-01-30T08:24:52;102472.93;;;9.57;27.88
56614;BME280;75854;35.670;139.690;2024-01-30T08:27:22;102473.96;;;9.76;28.99
56614;BME280;75854;35.670;139.690;2024-01-30T08:29:52;102469.63;;;9.71;28.69
56614;BME280;75854;35.670;139.690;2024-01-30T08:32:22;102471.37;;;9.41;29.54
56614;BME280;75854;35.670;139.690;2024-01-30T08:34:52;102475.42;;;9.48;29.49
56614;BME280;75854;35.670;139.690;2024-01-30T08:37:21;102471.78;;;9.44;29.26
56614;BME280;75854;35.670;139.690;2024-01-30T08:39:51;102471.42;;;9.26;29.68
56614;BME280;75854;35.670;139.690;2024-01-30T08:42:21;102474.35;;;9.04;29.68
56614;BME280;75854;35.670;139.690;2024-01-30T08:44:51;102479.30;;;9.16;29.75
56614;BME280;75854;35.670;139.690;2024-01-30T08:47:21;102482.38;;;9.39;29.55
56614;BME280;75854;35.670;139.690;2024-01-30T08:49:51;102483.64;;;9.55;29.82
56614;BME280;75854;35.670;139.690;2024-01-30T08:52:21;102486.36;;;9.57;30.23
56614;BME280;75854;35.670;139.690;2024-01-30T08:54:51;102484.02;;;9.34;30.03
56614;BME280;75854;35.670;139.690;2024-01-30T08:57:21;102488.91;;;9.44;30.39
56614;BME280;75854;35.670;139.690;2024-01-30T08:59:51;102491.12;;;9.14;31.34
56614;BME280;75854;35.670;139.690;2024-01-30T09:02:22;102489.60;;;9.07;31.41
56614;BME280;75854;35.670;139.690;2024-01-30T09:04:51;102497.66;;;8.44;31.97
56614;BME280;75854;35.670;139.690;2024-01-30T09:07:22;102498.59;;;8.09;32.59
56614;BME280;75854;35.670;139.690;2024-01-30T09:09:52;102496.68;;;7.79;33.65
56614;BME280;75854;35.670;139.690;2024-01-30T09:12:22;102502.69;;;7.00;34.99
56614;BME280;75854;35.670;139.690;2024-01-30T09:14:52;102501.94;;;6.67;35.50
56614;BME280;75854;35.670;139.690;2024-01-30T09:17:22;102499.68;;;6.76;35.57
56614;BME280;75854;35.670;139.690;2024-01-30T09:19:52;102505.73;;;6.39;37.31
56614;BME280;75854;35.670;139.690;2024-01-30T09:22:22;102507.65;;;6.11;37.62
56614;BME280;75854;35.670;139.690;2024-01-30T09:24:52;102512.96;;;6.42;37.56
56614;BME280;75854;35.670;139.690;2024-01-30T09:27:27;102514.08;;;5.94;37.68
56614;BME280;75854;35.670;139.690;2024-01-30T09:29:57;102520.25;;;6.14;37.48
56614;BME280;75854;35.670;139.690;2024-01-30T09:32:27;102523.24;;;6.01;37.65
56614;BME280;75854;35.670;139.690;2024-01-30T09:34:57;102525.12;;;6.44;37.27
56614;BME280;75854;35.670;139.690;2024-01-30T09:37:27;102527.34;;;5.78;37.65
56614;BME280;75854;35.670;139.690;2024-01-30T09:39:57;102527.66;;;5.90;38.10
56614;BME280;75854;35.670;139.690;2024-01-30T09:42:32;102530.20;;;5.70;37.46
56614;BME280;75854;35.670;139.690;2024-01-30T09:45:04;102532.18;;;5.95;37.02
56614;BME280;75854;35.670;139.690;2024-01-30T09:47:40;102535.29;;;6.19;36.91
56614;BME280;75854;35.670;139.690;2024-01-30T09:50:12;102532.37;;;5.92;37.71
56614;BME280;75854;35.670;139.690;2024-01-30T09:52:42;102529.73;;;5.95;37.08
56614;BME280;75854;35.670;139.690;2024-01-30T09:55:13;102528.77;;;6.07;37.59
56614;BME280;75854;35.670;139.690;2024-01-30T09:57:43;102526.38;;;5.49;37.32
56614;BME280;75854;35.670;139.690;2024-01-30T10:00:14;102532.74;;;5.81;37.63
56614;BME280;75854;35.670;139.690;2024-01-30T10:02:45;102539.80;;;6.04;37.89
56614;BME280;75854;35.670;139.690;2024-01-30T10:05:17;102541.13;;;5.65;38.27
56614;BME280;75854;35.670;139.690;2024-01-30T10:07:56;102541.86;;;5.72;38.43
56614;BME280;75854;35.670;139.690;2024-01-30T10:10:26;102547.78;;;5.92;38.04
56614;BME280;75854;35.670;139.690;2024-01-30T10:12:56;102548.58;;;5.69;37.96
56614;BME280;75854;35.670;139.690;2024-01-30T10:15:27;102552.48;;;5.19;38.69
56614;BME280;75854;35.670;139.690;2024-01-30T10:17:58;102552.43;;;5.68;38.53
56614;BME280;75854;35.670;139.690;2024-01-30T10:20:27;102550.52;;;5.71;38.11
56614;BME280;75854;35.670;139.690;2024-01-30T10:22:58;102553.50;;;5.36;39.37
56614;BME280;75854;35.670;139.690;2024-01-30T10:25:27;102555.75;;;5.17;39.56
56614;BME280;75854;35.670;139.690;2024-01-30T10:27:58;102560.98;;;5.55;39.51
56614;BME280;75854;35.670;139.690;2024-01-30T10:30:29;102565.18;;;5.52;39.94
56614;BME280;75854;35.670;139.690;2024-01-30T10:32:59;102565.64;;;5.41;39.62
56614;BME280;75854;35.670;139.690;2024-01-30T10:35:29;102568.74;;;5.41;40.75
56614;BME280;75854;35.670;139.690;2024-01-30T10:38:00;102571.40;;;5.46;40.71
56614;BME280;75854;35.670;139.690;2024-01-30T10:40:32;102577.26;;;5.31;40.47
56614;BME280;75854;35.670;139.690;2024-01-30T10:43:04;102575.12;;;5.37;40.71
56614;BME280;75854;35.670;139.690;2024-01-30T10:45:36;102579.14;;;5.43;40.80
56614;BME280;75854;35.670;139.690;2024-01-30T10:48:11;102579.19;;;5.47;40.93
56614;BME280;75854;35.670;139.690;2024-01-30T10:50:41;102577.93;;;5.31;41.63
56614;BME280;75854;35.670;139.690;2024-01-30T10:53:12;102575.30;;;5.35;41.74
56614;BME280;75854;35.670;139.690;2024-01-30T10:55:42;102575.53;;;5.30;41.51
56614;BME280;75854;35.670;139.690;2024-01-30T10:58:13;102568.87;;;5.23;42.52
56614;BME280;75854;35.670;139.690;2024-01-30T11:00:44;102562.22;;;5.24;42.47
56614;BME280;75854;35.670;139.690;2024-01-30T11:03:14;102564.30;;;5.23;41.95
56614;BME280;75854;35.670;139.690;2024-01-30T11:05:48;102562.00;;;5.16;42.32
56614;BME280;75854;35.670;139.690;2024-01-30T11:08:25;102557.92;;;5.21;41.99
56614;BME280;75854;35.670;139.690;2024-01-30T11:10:57;102557.40;;;5.01;41.53
56614;BME280;75854;35.670;139.690;2024-01-30T11:13:29;102552.39;;;5.15;40.99
56614;BME280;75854;35.670;139.690;2024-01-30T11:16:02;102546.41;;;5.28;40.83
56614;BME280;75854;35.670;139.690;2024-01-30T11:18:33;102541.83;;;5.27;41.68
56614;BME280;75854;35.670;139.690;2024-01-30T11:21:06;102543.12;;;5.45;41.17
56614;BME280;75854;35.670;139.690;2024-01-30T11:23:36;102539.40;;;5.56;41.50
56614;BME280;75854;35.670;139.690;2024-01-30T11:26:06;102534.56;;;5.39;41.69
56614;BME280;75854;35.670;139.690;2024-01-30T11:28:35;102531.60;;;5.35;42.19
56614;BME280;75854;35.670;139.690;2024-01-30T11:31:07;102534.40;;;5.37;42.40
56614;BME280;75854;35.670;139.690;2024-01-30T11:33:39;102534.98;;;5.34;43.10
56614;BME280;75854;35.670;139.690;2024-01-30T11:36:09;102534.61;;;5.35;42.93
56614;BME280;75854;35.670;139.690;2024-01-30T11:38:42;102533.33;;;5.35;43.78
56614;BME280;75854;35.670;139.690;2024-01-30T11:41:12;102535.32;;;5.38;43.86
56614;BME280;75854;35.670;139.690;2024-01-30T11:43:43;102536.52;;;5.37;44.75
56614;BME280;75854;35.670;139.690;2024-01-30T11:46:22;102536.01;;;5.31;44.90
56614;BME280;75854;35.670;139.690;2024-01-30T11:48:54;102535.14;;;5.28;45.17
56614;BME280;75854;35.670;139.690;2024-01-30T11:51:24;102539.73;;;5.09;45.47
56614;BME280;75854;35.670;139.690;2024-01-30T11:53:54;102536.88;;;5.53;46.46
56614;BME280;75854;35.670;139.690;2024-01-30T11:56:25;102539.48;;;5.21;46.93
56614;BME280;75854;35.670;139.690;2024-01-30T11:58:55;102544.54;;;5.19;46.91
56614;BME280;75854;35.670;139.690;2024-01-30T12:01:25;102544.44;;;5.02;47.00
56614;BME280;75854;35.670;139.690;2024-01-30T12:03:55;102545.14;;;5.21;47.01
56614;BME280;75854;35.670;139.690;2024-01-30T12:06:26;102539.02;;;5.25;47.30
56614;BME280;75854;35.670;139.690;2024-01-30T12:09:04;102538.67;;;5.59;48.10
56614;BME280;75854;35.670;139.690;2024-01-30T12:11:44;102539.18;;;5.21;48.50
56614;BME280;75854;35.670;139.690;2024-01-30T12:14:15;102537.14;;;5.23;48.56
56614;BME280;75854;35.670;139.690;2024-01-30T12:16:49;102539.20;;;5.14;49.47
56614;BME280;75854;35.670;139.690;2024-01-30T12:19:27;102544.11;;;5.11;49.93
56614;BME280;75854;35.670;139.690;2024-01-30T12:21:57;102540.38;;;5.84;48.91
56614;BME280;75854;35.670;139.690;2024-01-30T12:24:28;102537.88;;;5.86;48.47
56614;BME280;75854;35.670;139.690;2024-01-30T12:26:59;102534.16;;;6.14;47.59
56614;BME280;75854;35.670;139.690;2024-01-30T12:29:33;102538.43;;;6.44;46.71
56614;BME280;75854;35.670;139.690;2024-01-30T12:32:04;102544.50;;;6.48;46.42
56614;BME280;75854;35.670;139.690;2024-01-30T12:34:39;102546.78;;;6.96;46.45
56614;BME280;75854;35.670;139.690;2024-01-30T12:37:09;102544.80;;;6.67;46.21
56614;BME280;75854;35.670;139.690;2024-01-30T12:39:40;102542.78;;;7.00;46.13
56614;BME280;75854;35.670;139.690;2024-01-30T12:42:10;102538.40;;;6.83;45.81
56614;BME280;75854;35.670;139.690;2024-01-30T12:44:40;102538.87;;;6.98;45.59
56614;BME280;75854;35.670;139.690;2024-01-30T12:47:10;102534.85;;;7.43;45.24
56614;BME280;75854;35.670;139.690;2024-01-30T12:49:40;102537.53;;;7.19;45.38
56614;BME280;75854;35.670;139.690;2024-01-30T12:52:10;102532.51;;;7.33;45.04
56614;BME280;75854;35.670;139.690;2024-01-30T12:54:41;102532.90;;;7.29;44.92